Time;durP1;ratioP1;P1;durP2;ratioP2;P2;SDS_P1;SDS_P2;PMS_P1;PMS_P2;Temp;Humidity;BMP_temperature;BMP_pressure;BME280_temperature;BME280_humidity;BME280_pressure;Samples;Min_cycle;Max_cycle;Signal;HPM_P1;HPM_P2
2022/12/05 00:00:26;;;;;;;41.40;24.50;;;4.40;87.00;;;;;;5030500;28;20112;-67
2022/12/05 00:02:52;;;;;;;44.80;25.08;;;4.40;87.00;;;;;;5030246;28;20049;-67
2022/12/05 00:05:17;;;;;;;38.83;23.55;;;4.40;87.10;;;;;;5012599;28;20021;-67
2022/12/05 00:07:43;;;;;;;40.35;24.10;;;4.40;87.20;;;;;;5031693;28;20040;-65
2022/12/05 00:10:09;;;;;;;44.55;26.25;;;4.30;87.20;;;;;;5032493;28;20105;-66
2022/12/05 00:12:36;;;;;;;38.70;23.40;;;4.40;88.00;;;;;;5032171;28;20104;-65
2022/12/05 00:15:02;;;;;;;40.92;23.50;;;4.30;87.70;;;;;;5011132;28;20033;-65
2022/12/05 00:17:30;;;;;;;41.65;24.80;;;4.40;87.80;;;;;;5030118;28;20040;-65
2022/12/05 00:19:55;;;;;;;48.58;28.30;;;4.40;87.70;;;;;;5037555;28;20025;-65
2022/12/05 00:22:21;;;;;;;42.20;24.55;;;4.40;87.70;;;;;;5032845;28;20032;-65
2022/12/05 00:24:46;;;;;;;40.58;24.45;;;4.40;87.80;;;;;;5034499;28;20029;-65
2022/12/05 00:27:12;;;;;;;51.40;29.38;;;4.40;87.80;;;;;;5034670;28;20031;-66
2022/12/05 00:29:37;;;;;;;44.28;25.42;;;4.40;88.00;;;;;;5034148;28;20029;-65
2022/12/05 00:32:03;;;;;;;46.40;26.08;;;4.40;88.20;;;;;;5034180;28;20021;-65
2022/12/05 00:34:28;;;;;;;47.45;26.60;;;4.40;88.10;;;;;;5034046;28;20113;-65
2022/12/05 00:36:54;;;;;;;47.00;26.50;;;4.40;88.10;;;;;;5034564;28;20053;-66
2022/12/05 00:39:19;;;;;;;43.05;24.80;;;4.40;88.00;;;;;;5034737;28;20025;-66
2022/12/05 00:41:45;;;;;;;44.00;24.80;;;4.40;88.10;;;;;;5034346;28;20111;-66
2022/12/05 00:44:12;;;;;;;44.95;26.33;;;4.40;88.10;;;;;;5033933;28;20080;-67
2022/12/05 00:46:38;;;;;;;42.53;23.55;;;4.40;88.10;;;;;;5034055;28;20029;-66
2022/12/05 00:49:05;;;;;;;42.55;24.75;;;4.40;88.20;;;;;;5015261;28;20034;-66
2022/12/05 00:51:37;;;;;;;44.25;25.25;;;4.50;88.20;;;;;;5015765;28;20029;-66
2022/12/05 00:54:09;;;;;;;48.83;28.38;;;4.40;88.10;;;;;;5015530;28;20021;-66
2022/12/05 00:56:35;;;;;;;47.45;26.58;;;4.40;88.40;;;;;;5027184;28;20068;-66
2022/12/05 00:59:02;;;;;;;46.92;27.13;;;4.40;88.60;;;;;;5032948;28;20033;-66
2022/12/05 01:01:32;;;;;;;43.10;24.42;;;4.40;88.70;;;;;;5014410;28;20029;-66
2022/12/05 01:04:01;;;;;;;48.05;26.33;;;4.40;88.70;;;;;;5031789;28;20380;-66
2022/12/05 01:06:27;;;;;;;44.20;25.48;;;4.40;88.70;;;;;;5032078;28;20022;-66
2022/12/05 01:08:54;;;;;;;42.22;24.92;;;4.50;88.70;;;;;;5032229;28;20025;-66
2022/12/05 01:11:20;;;;;;;44.90;25.55;;;4.40;88.60;;;;;;5032019;28;20033;-65
2022/12/05 01:13:46;;;;;;;41.90;25.30;;;4.40;88.70;;;;;;5014128;28;20039;-66
2022/12/05 01:16:14;;;;;;;55.45;31.17;;;4.50;88.70;;;;;;5011191;28;20053;-65
2022/12/05 01:18:40;;;;;;;43.50;25.05;;;4.40;88.80;;;;;;5036694;28;20026;-66
2022/12/05 01:21:06;;;;;;;41.95;23.95;;;4.40;89.00;;;;;;5032294;28;20498;-65
2022/12/05 01:23:31;;;;;;;33.28;19.98;;;4.40;89.10;;;;;;5031476;28;20711;-65
2022/12/05 01:25:57;;;;;;;47.90;26.65;;;4.50;89.10;;;;;;5031290;28;20045;-65
2022/12/05 01:28:22;;;;;;;48.05;26.67;;;4.50;89.00;;;;;;5030851;28;20064;-66
2022/12/05 01:30:49;;;;;;;44.83;24.98;;;4.50;89.00;;;;;;5020956;28;20029;-66
2022/12/05 01:33:16;;;;;;;44.95;25.23;;;4.50;89.10;;;;;;5013898;28;20132;-66
2022/12/05 01:35:41;;;;;;;42.72;24.23;;;4.50;89.20;;;;;;5030984;28;20026;-66
2022/12/05 01:38:08;;;;;;;45.38;26.25;;;4.50;89.20;;;;;;5020981;28;20032;-66
2022/12/05 01:40:35;;;;;;;40.00;22.17;;;4.50;89.20;;;;;;5031204;28;20500;-66
2022/12/05 01:43:01;;;;;;;41.25;23.35;;;4.50;89.10;;;;;;5031008;28;20029;-66
2022/12/05 01:45:39;;;;;;;51.72;28.02;;;4.50;89.20;;;;;;5013108;28;20014;-66
2022/12/05 01:48:12;;;;;;;42.38;23.85;;;4.50;89.20;;;;;;5031250;28;20032;-66
2022/12/05 01:50:38;;;;;;;43.30;24.55;;;4.50;89.30;;;;;;5031580;28;20021;-66
2022/12/05 01:53:04;;;;;;;39.60;23.52;;;4.50;89.30;;;;;;5029477;28;20041;-66
2022/12/05 01:55:30;;;;;;;41.42;23.35;;;4.50;89.40;;;;;;5031374;28;20057;-66
2022/12/05 01:57:56;;;;;;;42.80;25.08;;;4.50;89.50;;;;;;5030921;28;20384;-67
2022/12/05 02:00:22;;;;;;;35.67;21.23;;;4.50;89.60;;;;;;4995382;28;1059716;-66
2022/12/05 02:03:03;;;;;;;41.85;24.25;;;4.50;89.60;;;;;;5014623;28;20018;-66
2022/12/05 02:05:31;;;;;;;38.85;22.00;;;4.60;89.70;;;;;;5032350;28;20041;-66
2022/12/05 02:07:59;;;;;;;39.58;22.92;;;4.60;89.70;;;;;;5032226;28;20665;-66
2022/12/05 02:10:28;;;;;;;37.45;21.67;;;4.60;89.60;;;;;;5014545;28;20035;-67
2022/12/05 02:12:55;;;;;;;35.92;22.48;;;4.60;89.70;;;;;;5012799;28;20033;-67
2022/12/05 02:15:27;;;;;;;41.83;25.13;;;4.70;89.60;;;;;;5032240;28;20523;-67
2022/12/05 02:18:09;;;;;;;;;;;4.60;89.50;;;;;;5031680;28;20036;-67
2022/12/05 02:20:40;;;;;;;36.72;21.52;;;4.70;89.50;;;;;;5013670;28;19913;-67
2022/12/05 02:23:08;;;;;;;37.90;22.38;;;4.60;89.60;;;;;;5013539;28;20033;-67
2022/12/05 02:25:44;;;;;;;36.72;21.60;;;4.70;89.80;;;;;;5031327;28;20045;-66
2022/12/05 02:28:22;;;;;;;33.65;20.08;;;4.70;89.70;;;;;;5031387;28;20597;-67
2022/12/05 02:30:56;;;;;;;38.03;22.20;;;4.70;89.70;;;;;;5030997;28;20029;-66
2022/12/05 02:33:37;;;;;;;38.42;22.65;;;4.70;89.60;;;;;;5031312;28;20371;-67
2022/12/05 02:36:16;;;;;;;45.35;26.63;;;4.70;89.90;;;;;;5031337;28;20026;-66
2022/12/05 02:39:01;;;;;;;38.78;23.98;;;4.70;89.90;;;;;;5031316;28;20032;-66
2022/12/05 02:41:34;;;;;;;34.92;21.10;;;4.70;90.10;;;;;;5010907;28;20108;-67
2022/12/05 02:44:09;;;;;;;42.47;24.88;;;4.70;90.10;;;;;;5030332;28;20030;-66
2022/12/05 02:46:37;;;;;;;45.97;28.20;;;4.70;90.10;;;;;;5026471;28;20067;-66
2022/12/05 02:49:08;;;;;;;40.15;22.92;;;4.70;90.20;;;;;;5012971;28;20113;-66
2022/12/05 02:51:40;;;;;;;35.83;20.67;;;4.70;90.20;;;;;;5031015;28;20025;-66
2022/12/05 02:54:11;;;;;;;33.05;20.10;;;4.80;90.20;;;;;;5030912;28;20056;-66
2022/12/05 02:56:39;;;;;;;36.13;21.13;;;4.80;90.20;;;;;;5030624;28;20116;-66
2022/12/05 02:59:04;;;;;;;40.80;24.15;;;4.80;90.10;;;;;;5030938;28;20115;-66
2022/12/05 03:01:31;;;;;;;37.80;22.65;;;4.80;90.10;;;;;;5013167;28;20499;-65
2022/12/05 03:03:59;;;;;;;33.40;20.13;;;4.80;90.10;;;;;;5012801;28;20104;-65
2022/12/05 03:06:40;;;;;;;37.67;22.30;;;4.80;90.10;;;;;;5030716;28;20032;-65
2022/12/05 03:09:14;;;;;;;36.40;21.15;;;4.90;90.10;;;;;;5030581;28;20013;-66
2022/12/05 03:12:16;;;;;;;35.72;21.08;;;4.90;90.10;;;;;;5029283;28;20105;-65
2022/12/05 03:14:46;;;;;;;37.85;22.08;;;4.80;90.20;;;;;;5026450;28;20125;-66
2022/12/05 03:17:18;;;;;;;37.17;22.17;;;4.80;90.20;;;;;;5030627;28;20036;-66
2022/12/05 03:19:54;;;;;;;43.15;25.77;;;4.80;90.30;;;;;;5030511;28;20025;-65
2022/12/05 03:22:43;;;;;;;37.78;22.50;;;4.80;90.20;;;;;;5030187;28;20032;-66
2022/12/05 03:25:11;;;;;;;35.42;20.73;;;4.80;90.30;;;;;;5030305;28;20071;-66
2022/12/05 03:27:55;;;;;;;35.33;20.95;;;4.80;90.40;;;;;;5028078;28;20075;-66
2022/12/05 03:30:22;;;;;;;37.45;20.80;;;4.80;90.30;;;;;;5030339;28;20116;-67
2022/12/05 03:33:00;;;;;;;32.85;20.10;;;4.90;90.30;;;;;;5012641;28;20033;-66
2022/12/05 03:35:39;;;;;;;38.30;22.70;;;5.00;90.30;;;;;;5029697;28;20068;-67
2022/12/05 03:38:07;;;;;;;35.47;20.48;;;5.00;90.20;;;;;;5002645;28;20034;-66
2022/12/05 03:40:51;;;;;;;32.28;19.23;;;5.00;90.20;;;;;;5029909;28;20022;-66
2022/12/05 03:43:39;;;;;;;34.08;21.13;;;5.00;90.20;;;;;;5030214;28;20022;-65
2022/12/05 03:46:07;;;;;;;37.55;22.92;;;5.00;90.10;;;;;;5010669;28;20021;-65
2022/12/05 03:48:42;;;;;;;34.63;21.35;;;5.00;90.10;;;;;;5024722;28;20041;-65
2022/12/05 03:51:10;;;;;;;37.85;21.27;;;5.00;90.20;;;;;;5028354;28;20446;-66
2022/12/05 03:53:50;;;;;;;34.35;20.70;;;5.00;90.10;;;;;;5026820;28;20555;-66
2022/12/05 03:56:21;;;;;;;33.58;20.25;;;5.00;90.20;;;;;;5029027;28;20084;-66
2022/12/05 03:59:01;;;;;;;32.55;20.90;;;5.10;90.10;;;;;;5028093;28;20079;-66
2022/12/05 04:01:30;;;;;;;36.92;22.50;;;5.10;90.10;;;;;;5028840;28;20025;-66
2022/12/05 04:04:02;;;;;;;36.25;21.08;;;5.10;90.10;;;;;;5025531;28;20018;-66
2022/12/05 04:06:33;;;;;;;32.95;20.48;;;5.00;90.10;;;;;;5028228;28;20018;-66
2022/12/05 04:09:04;;;;;;;37.58;22.30;;;5.10;90.10;;;;;;5029866;28;20021;-66
2022/12/05 04:11:33;;;;;;;33.10;20.30;;;5.10;90.10;;;;;;5026654;28;20025;-66
2022/12/05 04:14:10;;;;;;;32.85;19.65;;;5.10;90.10;;;;;;5029653;28;20499;-66
2022/12/05 04:22:31;;;;;;;26.35;15.95;;;5.10;90.10;;;;;;5025550;28;20086;-66
2022/12/05 04:27:52;;;;;;;33.33;20.80;;;5.20;90.00;;;;;;5029890;28;20334;-66
2022/12/05 04:30:21;;;;;;;30.35;19.00;;;5.20;90.10;;;;;;5029019;28;20064;-66
2022/12/05 04:32:59;;;;;;;28.10;18.00;;;5.10;90.00;;;;;;5029572;28;20032;-66
2022/12/05 04:35:53;;;;;;;29.75;17.85;;;5.10;90.10;;;;;;5029380;28;20036;-67
2022/12/05 04:38:25;;;;;;;26.27;16.60;;;5.20;90.10;;;;;;5019008;28;20049;-67
2022/12/05 04:41:00;;;;;;;32.92;20.48;;;5.10;90.10;;;;;;5012276;28;20034;-67
2022/12/05 04:43:28;;;;;;;31.92;19.83;;;5.10;90.10;;;;;;5022655;28;20026;-67
2022/12/05 04:45:57;;;;;;;30.73;18.92;;;5.20;90.20;;;;;;5029219;28;20086;-67
2022/12/05 04:48:25;;;;;;;27.10;17.02;;;5.10;90.20;;;;;;5029415;28;20022;-66
2022/12/05 04:50:53;;;;;;;31.40;19.70;;;5.20;90.20;;;;;;5028993;28;20404;-67
2022/12/05 04:53:23;;;;;;;33.30;20.15;;;5.10;90.20;;;;;;5030545;28;20048;-67
2022/12/05 04:55:52;;;;;;;25.10;15.82;;;5.20;90.20;;;;;;5013234;28;20051;-67
2022/12/05 04:58:21;;;;;;;27.25;16.50;;;5.20;90.20;;;;;;5024238;28;20052;-68
2022/12/05 05:01:05;;;;;;;25.38;15.60;;;5.20;90.20;;;;;;5029250;28;20033;-68
2022/12/05 05:03:43;;;;;;;30.17;18.73;;;5.20;90.20;;;;;;5024015;28;20061;-67
2022/12/05 05:06:11;;;;;;;24.02;15.40;;;5.20;90.10;;;;;;5014907;28;20060;-66
2022/12/05 05:08:47;;;;;;;27.08;17.52;;;5.30;90.10;;;;;;5032839;28;20025;-67
2022/12/05 05:11:14;;;;;;;28.90;18.05;;;5.30;90.10;;;;;;5014823;28;20033;-67
2022/12/05 05:13:39;;;;;;;26.80;17.70;;;5.30;90.10;;;;;;5032760;28;20123;-68
2022/12/05 05:16:06;;;;;;;28.90;18.70;;;5.30;90.10;;;;;;5032222;28;20072;-68
2022/12/05 05:18:32;;;;;;;25.42;16.75;;;5.30;90.10;;;;;;5015040;28;20029;-68
2022/12/05 05:20:58;;;;;;;26.00;15.88;;;5.30;90.10;;;;;;5032562;28;20026;-68
2022/12/05 05:23:23;;;;;;;26.65;16.38;;;5.30;90.10;;;;;;5032756;28;20492;-67
2022/12/05 05:25:54;;;;;;;27.05;17.55;;;5.30;90.10;;;;;;5032774;28;20104;-66
2022/12/05 05:28:19;;;;;;;29.35;18.58;;;5.40;90.10;;;;;;5014155;28;20506;-67
2022/12/05 05:30:45;;;;;;;27.50;17.83;;;5.30;90.00;;;;;;5032755;28;20021;-67
2022/12/05 05:33:11;;;;;;;24.42;15.68;;;5.30;90.00;;;;;;5032765;28;20483;-67
2022/12/05 05:35:37;;;;;;;26.75;17.90;;;5.40;90.10;;;;;;5032086;28;20060;-67
2022/12/05 05:38:03;;;;;;;24.55;15.50;;;5.40;90.10;;;;;;5032576;28;20029;-66
2022/12/05 05:40:29;;;;;;;22.58;14.90;;;5.40;90.10;;;;;;5032627;28;20044;-66
2022/12/05 05:42:54;;;;;;;26.05;16.92;;;5.40;90.00;;;;;;5031965;28;20060;-66
2022/12/05 05:45:20;;;;;;;27.00;18.40;;;5.40;90.00;;;;;;5032142;28;20029;-66
2022/12/05 05:47:48;;;;;;;27.42;17.58;;;5.40;90.30;;;;;;5032089;28;20029;-66
2022/12/05 05:50:14;;;;;;;24.15;16.15;;;5.40;90.00;;;;;;5014673;28;20124;-66
2022/12/05 05:52:40;;;;;;;22.48;15.52;;;5.40;90.10;;;;;;5032126;28;20101;-67
2022/12/05 05:55:06;;;;;;;27.20;17.95;;;5.40;90.10;;;;;;5032024;28;20575;-65
2022/12/05 05:57:32;;;;;;;28.80;19.23;;;5.40;90.10;;;;;;5032373;28;20104;-65
2022/12/05 05:59:58;;;;;;;27.42;18.55;;;5.40;90.10;;;;;;5013968;28;20121;-66
2022/12/05 06:02:23;;;;;;;28.60;19.25;;;5.40;90.20;;;;;;5032188;28;20021;-65
2022/12/05 06:04:49;;;;;;;22.88;15.63;;;5.40;90.20;;;;;;5032006;28;20536;-66
2022/12/05 06:07:15;;;;;;;25.60;16.08;;;5.40;90.30;;;;;;5032217;28;20096;-67
2022/12/05 06:09:41;;;;;;;23.50;15.77;;;5.40;90.30;;;;;;5032101;28;20510;-66
2022/12/05 06:12:07;;;;;;;30.20;18.85;;;5.40;90.20;;;;;;5031809;28;20034;-65
2022/12/05 06:14:33;;;;;;;22.83;15.77;;;5.40;90.20;;;;;;5031765;28;20035;-65
2022/12/05 06:16:58;;;;;;;27.08;18.40;;;5.40;90.20;;;;;;5024740;28;20420;-66
2022/12/05 06:19:24;;;;;;;25.20;17.40;;;5.40;90.50;;;;;;5014776;28;20053;-65
2022/12/05 06:21:50;;;;;;;27.17;17.77;;;5.40;90.30;;;;;;5008909;28;20029;-65
2022/12/05 06:24:16;;;;;;;29.00;19.20;;;5.40;90.30;;;;;;5031061;28;20029;-64
2022/12/05 06:26:42;;;;;;;23.65;15.73;;;5.40;90.20;;;;;;5012048;28;20029;-65
2022/12/05 06:29:08;;;;;;;24.17;15.73;;;5.40;90.30;;;;;;5012740;28;20510;-66
2022/12/05 06:31:34;;;;;;;27.80;18.05;;;5.50;90.30;;;;;;5012103;28;20037;-66
2022/12/05 06:34:03;;;;;;;24.88;16.10;;;5.40;90.30;;;;;;5031032;28;20029;-66
2022/12/05 06:36:29;;;;;;;23.88;14.93;;;5.40;90.30;;;;;;5029639;28;20035;-65
2022/12/05 06:38:56;;;;;;;26.38;19.05;;;5.40;90.30;;;;;;5030954;28;20044;-66
2022/12/05 06:41:23;;;;;;;25.70;17.27;;;5.40;90.30;;;;;;5030351;28;20029;-67
2022/12/05 06:43:52;;;;;;;25.25;16.80;;;5.40;90.40;;;;;;5013251;28;20025;-66
2022/12/05 06:46:18;;;;;;;22.48;16.27;;;5.40;90.40;;;;;;5030797;28;20100;-66
2022/12/05 06:48:44;;;;;;;25.98;18.20;;;5.50;90.40;;;;;;5031099;28;20093;-66
2022/12/05 06:51:11;;;;;;;22.75;15.82;;;5.40;90.30;;;;;;5031416;28;20069;-65
2022/12/05 06:53:38;;;;;;;25.48;17.27;;;5.50;90.40;;;;;;5028496;28;20033;-66
2022/12/05 06:56:06;;;;;;;24.05;16.63;;;5.50;90.30;;;;;;5029785;28;20442;-66
2022/12/05 06:58:31;;;;;;;24.08;16.80;;;5.50;90.40;;;;;;5030630;28;20017;-65
2022/12/05 07:03:46;;;;;;;24.40;16.17;;;5.50;90.30;;;;;;5030213;28;20152;-67
2022/12/05 07:06:12;;;;;;;23.73;16.13;;;5.60;90.30;;;;;;5030501;28;20017;-66
2022/12/05 07:08:37;;;;;;;22.67;15.38;;;5.60;90.20;;;;;;5030533;28;20835;-66
2022/12/05 07:11:03;;;;;;;25.13;16.75;;;5.60;90.20;;;;;;5028499;28;20034;-65
2022/12/05 07:13:29;;;;;;;22.55;14.18;;;5.60;90.10;;;;;;5027996;28;20044;-66
2022/12/05 07:15:54;;;;;;;25.63;17.35;;;5.60;90.20;;;;;;5011929;28;20025;-65
2022/12/05 07:18:20;;;;;;;22.38;15.73;;;5.50;90.10;;;;;;5031114;28;20550;-65
2022/12/05 07:20:56;;;;;;;21.52;14.65;;;5.50;90.30;;;;;;5031833;28;20025;-65
2022/12/05 07:23:21;;;;;;;26.15;17.05;;;5.60;90.30;;;;;;5029371;28;20025;-65
2022/12/05 07:25:47;;;;;;;22.13;15.07;;;5.50;90.30;;;;;;5010215;28;20399;-66
2022/12/05 07:28:12;;;;;;;20.95;13.90;;;5.50;90.40;;;;;;5029340;28;20048;-66
2022/12/05 07:30:38;;;;;;;19.80;13.48;;;5.60;90.40;;;;;;5028970;28;20061;-65
2022/12/05 07:33:03;;;;;;;20.38;13.77;;;5.70;90.30;;;;;;5029832;28;20037;-66
2022/12/05 07:35:29;;;;;;;21.58;14.95;;;5.70;90.20;;;;;;5029480;28;20038;-65
2022/12/05 07:37:55;;;;;;;25.20;16.83;;;5.70;90.20;;;;;;5021662;28;20025;-66
2022/12/05 07:40:20;;;;;;;21.92;15.50;;;5.70;90.20;;;;;;5012147;28;20037;-66
2022/12/05 07:42:49;;;;;;;21.65;14.88;;;5.60;90.20;;;;;;5030204;28;20049;-66
2022/12/05 07:45:15;;;;;;;24.20;17.33;;;5.60;90.20;;;;;;5028898;28;20108;-65
2022/12/05 07:47:40;;;;;;;23.15;16.38;;;5.60;90.20;;;;;;5011859;28;20167;-66
2022/12/05 07:50:07;;;;;;;22.67;16.52;;;5.60;90.30;;;;;;5028330;28;20013;-66
2022/12/05 07:52:32;;;;;;;19.02;13.13;;;5.60;90.40;;;;;;5026214;28;20033;-66
2022/12/05 07:54:58;;;;;;;25.40;18.30;;;5.60;90.40;;;;;;5010088;28;20029;-68
2022/12/05 07:57:24;;;;;;;21.58;15.60;;;5.50;90.40;;;;;;5027927;28;20033;-68
2022/12/05 07:59:49;;;;;;;22.45;14.77;;;5.60;90.50;;;;;;5028115;28;20029;-66
2022/12/05 08:02:15;;;;;;;18.45;13.50;;;5.60;90.50;;;;;;5009718;28;20227;-66
2022/12/05 08:04:40;;;;;;;18.90;13.35;;;5.60;90.40;;;;;;5027744;28;20021;-66
2022/12/05 08:07:09;;;;;;;19.55;13.50;;;5.70;90.40;;;;;;5028438;28;20559;-65
2022/12/05 08:09:34;;;;;;;21.33;14.57;;;5.70;90.30;;;;;;5028404;28;20492;-67
2022/12/05 08:12:00;;;;;;;23.70;16.10;;;5.70;90.20;;;;;;5027811;28;20059;-66
2022/12/05 08:14:25;;;;;;;19.17;13.50;;;5.70;90.20;;;;;;5025018;28;20117;-67
2022/12/05 08:16:51;;;;;;;19.30;14.38;;;5.80;90.20;;;;;;5029642;28;20430;-66
2022/12/05 08:19:17;;;;;;;21.58;15.30;;;5.70;90.20;;;;;;5024861;28;20044;-67
2022/12/05 08:21:42;;;;;;;20.48;14.10;;;5.70;90.20;;;;;;5027804;28;20048;-66
2022/12/05 08:24:08;;;;;;;19.73;13.95;;;5.80;90.20;;;;;;5029209;28;20072;-66
2022/12/05 08:26:35;;;;;;;20.58;13.35;;;5.80;90.20;;;;;;5027118;28;20072;-68
2022/12/05 08:29:13;;;;;;;18.95;13.27;;;5.80;90.20;;;;;;5028452;28;20025;-67
2022/12/05 08:31:42;;;;;;;19.67;13.27;;;5.90;90.20;;;;;;5026638;28;20017;-68
2022/12/05 08:34:11;;;;;;;22.15;15.05;;;5.90;90.20;;;;;;5027394;28;20036;-68
2022/12/05 08:36:37;;;;;;;19.98;13.75;;;5.90;90.20;;;;;;5028880;28;20104;-66
2022/12/05 08:39:05;;;;;;;19.95;13.93;;;5.90;90.20;;;;;;5029904;28;20116;-66
2022/12/05 08:41:32;;;;;;;22.92;15.07;;;5.90;90.10;;;;;;5034612;28;20021;-67
2022/12/05 08:44:04;;;;;;;23.13;14.98;;;5.90;90.10;;;;;;5014021;28;20025;-67
2022/12/05 08:46:35;;;;;;;23.85;15.65;;;5.80;90.10;;;;;;5032384;28;20021;-68
2022/12/05 08:49:02;;;;;;;28.77;19.33;;;5.90;90.20;;;;;;5028863;28;20079;-66
2022/12/05 08:51:28;;;;;;;26.35;17.30;;;5.70;90.20;;;;;;5031802;28;20480;-67
2022/12/05 08:53:55;;;;;;;23.48;15.18;;;5.80;90.30;;;;;;5030347;28;20021;-67
2022/12/05 08:56:21;;;;;;;24.88;16.48;;;5.80;90.30;;;;;;5030718;28;20591;-68
2022/12/05 08:58:46;;;;;;;24.73;15.93;;;5.80;90.30;;;;;;5031098;28;20105;-68
2022/12/05 09:01:15;;;;;;;25.92;16.83;;;5.90;90.30;;;;;;5031316;28;20021;-67
2022/12/05 09:03:42;;;;;;;23.75;15.25;;;5.90;90.30;;;;;;5029117;28;20032;-68
2022/12/05 09:06:28;;;;;;;22.50;14.43;;;5.90;90.30;;;;;;5030558;28;20105;-66
2022/12/05 09:08:55;;;;;;;28.15;18.55;;;6.00;90.20;;;;;;5030482;28;20483;-68
2022/12/05 09:11:23;;;;;;;29.75;18.58;;;5.90;90.20;;;;;;5031107;28;20064;-69
2022/12/05 09:13:51;;;;;;;29.02;18.17;;;5.90;90.20;;;;;;5030600;28;20037;-67
2022/12/05 09:16:23;;;;;;;27.98;18.05;;;5.90;90.20;;;;;;5030342;28;20457;-68
2022/12/05 09:18:50;;;;;;;24.27;16.48;;;5.90;90.20;;;;;;5031567;28;20151;-67
2022/12/05 09:21:18;;;;;;;24.70;15.50;;;6.00;90.30;;;;;;5031311;28;20040;-67
2022/12/05 09:23:44;;;;;;;23.42;14.95;;;6.00;90.20;;;;;;5029990;28;20018;-67
2022/12/05 09:26:13;;;;;;;33.15;20.88;;;6.00;90.10;;;;;;5026081;28;20029;-68
2022/12/05 09:28:39;;;;;;;25.63;16.27;;;5.90;90.20;;;;;;5028081;28;20032;-67
2022/12/05 09:31:08;;;;;;;26.48;15.77;;;5.90;90.30;;;;;;5031017;28;20079;-67
2022/12/05 09:33:36;;;;;;;30.52;18.20;;;6.00;90.30;;;;;;5012062;28;20515;-67
2022/12/05 09:36:07;;;;;;;25.92;16.50;;;6.00;90.30;;;;;;5028692;28;20033;-67
2022/12/05 09:38:32;;;;;;;26.77;16.60;;;6.00;90.30;;;;;;5031071;28;20029;-68
2022/12/05 09:44:35;;;;;;;25.40;15.48;;;6.00;90.30;;;;;;5032192;28;20103;-67
2022/12/05 09:47:15;;;;;;;23.52;15.00;;;6.00;90.20;;;;;;5027952;28;20472;-68
2022/12/05 09:49:49;;;;;;;21.98;13.32;;;6.10;90.20;;;;;;5012562;28;20112;-66
2022/12/05 09:52:27;;;;;;;25.70;15.68;;;6.10;90.20;;;;;;5010973;28;20030;-68
2022/12/05 09:54:53;;;;;;;23.08;14.02;;;6.10;90.10;;;;;;5030596;28;20104;-67
2022/12/05 09:57:29;;;;;;;22.05;13.25;;;6.20;90.10;;;;;;5030876;28;20053;-67
2022/12/05 09:59:55;;;;;;;24.92;15.40;;;6.20;90.10;;;;;;5027077;28;20049;-67
2022/12/05 10:02:42;;;;;;;28.65;17.85;;;6.20;90.00;;;;;;5009999;28;20033;-67
2022/12/05 10:05:36;;;;;;;27.80;17.38;;;6.10;90.10;;;;;;5026235;28;20022;-67
2022/12/05 10:08:09;;;;;;;28.77;16.88;;;6.10;90.10;;;;;;5028115;28;20036;-67
2022/12/05 10:10:49;;;;;;;27.58;16.90;;;6.00;90.20;;;;;;5007940;28;20025;-68
2022/12/05 10:13:17;;;;;;;25.13;15.40;;;6.00;90.40;;;;;;5015939;28;20037;-68
2022/12/05 10:15:44;;;;;;;22.42;14.27;;;6.10;90.40;;;;;;5030647;28;20033;-67
2022/12/05 10:18:18;;;;;;;22.77;13.55;;;6.10;90.40;;;;;;5029407;28;20025;-67
2022/12/05 10:20:51;;;;;;;21.70;13.07;;;6.20;90.30;;;;;;5006891;28;20392;-67
2022/12/05 10:23:25;;;;;;;;;;;6.30;90.30;;;;;;5031171;28;20080;-66
2022/12/05 10:25:57;;;;;;;27.40;16.58;;;6.30;90.20;;;;;;5029070;28;19913;-67
2022/12/05 10:28:39;;;;;;;24.35;15.55;;;6.20;90.10;;;;;;5013139;28;20365;-67
2022/12/05 10:31:12;;;;;;;23.45;13.85;;;6.20;90.20;;;;;;5028596;28;20029;-66
2022/12/05 10:33:46;;;;;;;21.75;13.77;;;6.30;90.20;;;;;;5029557;28;20022;-67
2022/12/05 10:36:13;;;;;;;27.75;16.65;;;6.30;90.20;;;;;;5029887;28;20060;-68
2022/12/05 10:38:40;;;;;;;23.25;14.68;;;6.20;90.10;;;;;;5025612;28;20032;-67
2022/12/05 10:41:08;;;;;;;23.88;14.32;;;6.30;90.20;;;;;;5030530;28;20110;-67
2022/12/05 10:43:36;;;;;;;22.33;13.93;;;6.40;90.20;;;;;;5030109;28;20018;-67
2022/12/05 10:46:03;;;;;;;21.45;12.98;;;6.40;90.10;;;;;;5030801;28;20041;-67
2022/12/05 10:48:30;;;;;;;19.85;12.38;;;6.40;90.10;;;;;;5029981;28;20017;-66
2022/12/05 10:50:58;;;;;;;20.50;12.52;;;6.50;90.10;;;;;;5030016;28;20583;-67
2022/12/05 10:53:27;;;;;;;22.65;14.00;;;6.60;90.00;;;;;;5029269;28;20024;-66
2022/12/05 10:55:53;;;;;;;22.60;13.52;;;6.50;89.90;;;;;;5028893;28;20159;-68
2022/12/05 10:58:24;;;;;;;19.90;12.68;;;6.50;89.90;;;;;;5031082;28;20100;-67
2022/12/05 11:00:56;;;;;;;16.13;10.40;;;6.60;90.00;;;;;;5027223;28;20087;-68
2022/12/05 11:03:31;;;;;;;20.08;13.25;;;6.60;89.80;;;;;;5029720;28;20372;-68
2022/12/05 11:06:01;;;;;;;17.52;12.23;;;6.60;89.80;;;;;;5028581;28;20063;-67
2022/12/05 11:08:32;;;;;;;20.73;13.45;;;6.60;89.80;;;;;;5006607;28;20080;-67
2022/12/05 11:11:12;;;;;;;20.67;12.82;;;6.60;89.60;;;;;;5025300;28;20033;-67
2022/12/05 11:13:54;;;;;;;18.02;11.82;;;6.60;89.70;;;;;;5028716;28;20488;-68
2022/12/05 11:16:27;;;;;;;18.65;12.77;;;6.70;89.80;;;;;;5028807;28;20037;-66
2022/12/05 11:18:52;;;;;;;21.38;12.73;;;6.70;89.60;;;;;;5023500;28;20034;-67
2022/12/05 11:21:19;;;;;;;17.58;11.68;;;6.70;89.70;;;;;;5026503;28;20025;-67
2022/12/05 11:23:46;;;;;;;15.35;9.88;;;6.70;89.60;;;;;;5028431;28;20021;-68
2022/12/05 11:26:34;;;;;;;20.58;13.88;;;6.70;89.60;;;;;;5028075;28;20092;-68
2022/12/05 11:29:00;;;;;;;16.50;11.95;;;6.70;89.60;;;;;;5026263;28;20021;-67
2022/12/05 11:31:28;;;;;;;16.25;10.98;;;6.70;89.60;;;;;;5027674;28;20040;-68
2022/12/05 11:34:00;;;;;;;15.90;10.73;;;6.70;89.60;;;;;;5028178;28;20032;-68
2022/12/05 11:36:35;;;;;;;15.90;10.60;;;6.70;89.60;;;;;;5027695;28;20034;-68
2022/12/05 11:39:01;;;;;;;15.55;10.95;;;6.80;89.50;;;;;;5027742;28;21034;-68
2022/12/05 11:41:45;;;;;;;15.25;10.63;;;6.90;89.50;;;;;;5028171;28;20026;-68
2022/12/05 11:44:32;;;;;;;14.48;10.23;;;6.90;89.30;;;;;;5027569;28;20482;-68
2022/12/05 11:47:12;;;;;;;12.70;9.23;;;6.90;89.30;;;;;;5026162;28;20482;-68
2022/12/05 11:50:26;;;;;;;14.13;10.00;;;6.90;89.40;;;;;;5023676;28;20049;-68
2022/12/05 11:52:55;;;;;;;23.85;15.40;;;6.90;89.30;;;;;;4956514;28;20187;-68
2022/12/05 11:55:20;;;;;;;15.60;10.73;;;6.90;89.10;;;;;;5029058;28;20357;-68
2022/12/05 11:58:18;;;;;;;15.80;11.30;;;6.90;89.20;;;;;;5005303;28;20044;-68
2022/12/05 12:00:55;;;;;;;13.75;9.95;;;6.90;89.20;;;;;;5023379;28;20520;-69
2022/12/05 12:03:36;;;;;;;13.55;9.45;;;6.90;89.30;;;;;;5028286;28;20072;-68
2022/12/05 12:06:25;;;;;;;12.63;8.95;;;6.90;89.30;;;;;;5026975;28;20068;-68
2022/12/05 12:09:04;;;;;;;11.95;8.93;;;7.00;89.40;;;;;;5027885;28;20033;-68
2022/12/05 12:11:39;;;;;;;10.93;8.10;;;7.00;89.40;;;;;;5024280;28;20494;-68
2022/12/05 12:14:31;;;;;;;11.15;7.93;;;7.10;89.50;;;;;;5031649;28;20133;-68
2022/12/05 12:17:16;;;;;;;10.90;8.10;;;7.10;89.30;;;;;;5024532;28;20089;-68
2022/12/05 12:19:54;;;;;;;10.05;7.72;;;7.10;89.60;;;;;;5027747;28;20401;-68
2022/12/05 12:22:51;;;;;;;9.77;7.25;;;7.20;89.00;;;;;;5033809;28;20458;-68
2022/12/05 12:25:44;;;;;;;9.20;6.95;;;7.20;88.90;;;;;;5015535;28;20501;-68
2022/12/05 12:28:40;;;;;;;9.20;7.10;;;7.20;88.80;;;;;;5033297;28;20021;-67
2022/12/05 12:31:11;;;;;;;9.63;6.90;;;7.20;88.70;;;;;;5030567;28;20035;-68
2022/12/05 12:34:24;;;;;;;9.60;6.95;;;7.20;88.60;;;;;;5015873;28;20029;-68
2022/12/05 12:36:59;;;;;;;;;;;7.20;88.50;;;;;;4959694;28;20035;-68
2022/12/05 12:39:58;;;;;;;8.95;6.63;;;7.20;88.20;;;;;;4959339;28;19918;-68
2022/12/05 12:42:28;;;;;;;8.20;6.45;;;7.20;88.30;;;;;;5011632;28;20042;-68
2022/12/05 12:45:14;;;;;;;8.45;6.47;;;7.20;88.30;;;;;;5040357;28;20025;-69
2022/12/05 12:47:49;;;;;;;7.28;5.85;;;7.20;88.30;;;;;;5028842;28;20033;-68
2022/12/05 12:50:43;;;;;;;8.70;6.65;;;7.30;88.30;;;;;;5014577;28;20380;-68
2022/12/05 12:53:44;;;;;;;8.40;6.47;;;7.30;88.10;;;;;;5015223;28;20046;-68
2022/12/05 12:56:25;;;;;;;8.43;6.22;;;7.30;88.20;;;;;;5019955;28;20453;-68
2022/12/05 12:58:51;;;;;;;8.48;6.50;;;7.20;88.10;;;;;;5031133;28;20863;-68
2022/12/05 13:01:43;;;;;;;8.98;6.63;;;7.20;88.20;;;;;;5032575;28;20029;-67
2022/12/05 13:04:23;;;;;;;9.18;6.35;;;7.30;88.30;;;;;;5014979;28;20163;-66
2022/12/05 13:06:59;;;;;;;7.55;5.53;;;7.20;88.30;;;;;;5023699;28;20107;-67
2022/12/05 13:09:39;;;;;;;6.97;5.38;;;7.30;88.30;;;;;;5029373;28;20022;-67
2022/12/05 13:12:20;;;;;;;6.97;5.47;;;7.30;88.30;;;;;;5017188;28;20041;-68